Time;durP1;ratioP1;P1;durP2;ratioP2;P2;SDS_P1;SDS_P2;PMS_P1;PMS_P2;Temp;Humidity;BMP_temperature;BMP_pressure;BME280_temperature;BME280_humidity;BME280_pressure;Samples;Min_cycle;Max_cycle;Signal;HPM_P1;HPM_P2
2022/01/29 00:02:09;;;;;;;14.90;11.30;;;;;;;;;;5040782;28;20033;-65
2022/01/29 00:04:35;;;;;;;15.20;10.98;;;;;;;;;;5027300;28;20079;-65
2022/01/29 00:07:01;;;;;;;16.25;11.68;;;;;;;;;;5041920;28;20037;-65
2022/01/29 00:09:27;;;;;;;16.67;11.68;;;;;;;;;;5050150;28;20039;-65
2022/01/29 00:11:53;;;;;;;17.90;11.77;;;;;;;;;;5050363;28;20116;-65
2022/01/29 00:14:19;;;;;;;16.40;10.80;;;;;;;;;;5048763;28;20445;-65
2022/01/29 00:16:45;;;;;;;16.95;12.27;;;;;;;;;;5048345;28;20033;-66
2022/01/29 00:19:11;;;;;;;17.60;10.70;;;;;;;;;;5049176;28;20017;-66
2022/01/29 00:21:37;;;;;;;16.27;10.82;;;;;;;;;;5048788;28;20052;-67
2022/01/29 00:24:04;;;;;;;14.02;10.23;;;;;;;;;;5049344;28;20017;-65
2022/01/29 00:26:32;;;;;;;18.40;10.82;;;;;;;;;;5049588;28;20021;-64
2022/01/29 00:28:58;;;;;;;15.38;11.15;;;;;;;;;;5049306;28;20028;-65
2022/01/29 00:31:25;;;;;;;15.32;10.77;;;;;;;;;;5049635;28;20032;-65
2022/01/29 00:33:52;;;;;;;14.45;11.00;;;;;;;;;;5050071;28;20355;-64
2022/01/29 00:36:18;;;;;;;15.13;10.70;;;;;;;;;;5048990;28;20009;-64
2022/01/29 00:38:44;;;;;;;15.35;11.07;;;;;;;;;;5049421;28;20056;-65
2022/01/29 00:41:10;;;;;;;14.73;10.77;;;;;;;;;;5049283;28;20037;-66
2022/01/29 00:43:36;;;;;;;16.23;10.95;;;;;;;;;;5049490;28;20033;-65
2022/01/29 00:46:02;;;;;;;13.90;10.02;;;;;;;;;;5045186;28;20072;-65
2022/01/29 00:48:28;;;;;;;14.25;10.25;;;;;;;;;;5046998;28;20049;-66
2022/01/29 00:50:57;;;;;;;16.08;11.07;;;;;;;;;;5049042;28;20025;-66
2022/01/29 00:53:23;;;;;;;14.60;10.30;;;;;;;;;;5049441;28;20407;-65
2022/01/29 00:55:49;;;;;;;14.93;10.68;;;;;;;;;;5049713;28;20428;-66
2022/01/29 00:58:16;;;;;;;16.85;9.98;;;;;;;;;;5048781;28;20726;-66
2022/01/29 01:00:44;;;;;;;14.52;10.68;;;;;;;;;;5040585;28;20030;-65
2022/01/29 01:03:10;;;;;;;15.20;10.85;;;;;;;;;;5045701;28;20028;-64
2022/01/29 01:05:36;;;;;;;16.52;11.35;;;;;;;;;;5050041;28;20044;-65
2022/01/29 01:08:02;;;;;;;14.82;11.00;;;;;;;;;;5050014;28;20583;-66
2022/01/29 01:10:28;;;;;;;15.70;10.45;;;;;;;;;;5048985;28;20458;-65
2022/01/29 01:12:54;;;;;;;15.30;10.20;;;;;;;;;;5048411;28;20456;-65
2022/01/29 01:15:20;;;;;;;14.05;10.20;;;;;;;;;;5047760;28;20029;-65
2022/01/29 01:17:48;;;;;;;15.27;11.18;;;;;;;;;;5048835;28;20442;-65
2022/01/29 01:20:14;;;;;;;14.00;10.35;;;;;;;;;;5048163;28;20480;-65
2022/01/29 01:22:41;;;;;;;13.40;9.20;;;;;;;;;;5048352;28;20521;-66
2022/01/29 01:25:07;;;;;;;13.02;9.57;;;;;;;;;;5032705;28;20048;-65
2022/01/29 01:27:33;;;;;;;16.02;9.98;;;;;;;;;;5045661;28;20535;-65
2022/01/29 01:29:59;;;;;;;13.45;10.00;;;;;;;;;;5048194;28;20390;-65
2022/01/29 01:32:25;;;;;;;14.10;9.77;;;;;;;;;;5047264;28;20427;-66
2022/01/29 01:34:54;;;;;;;13.98;9.95;;;;;;;;;;5043083;28;20749;-66
2022/01/29 01:37:34;;;;;;;13.52;9.70;;;;;;;;;;5044280;28;20059;-65
2022/01/29 01:40:01;;;;;;;13.60;10.32;;;;;;;;;;5041039;28;20088;-66
2022/01/29 01:42:27;;;;;;;13.68;9.60;;;;;;;;;;5055034;28;20037;-65
2022/01/29 01:44:54;;;;;;;13.13;9.07;;;;;;;;;;5047985;28;20024;-66
2022/01/29 01:47:20;;;;;;;13.85;10.00;;;;;;;;;;5050223;28;20045;-66
2022/01/29 01:49:46;;;;;;;11.30;9.05;;;;;;;;;;5047155;28;20029;-66
2022/01/29 01:52:13;;;;;;;12.63;9.57;;;;;;;;;;5047215;28;20033;-65
2022/01/29 01:54:40;;;;;;;12.73;9.35;;;;;;;;;;5047094;28;20048;-66
2022/01/29 01:57:06;;;;;;;14.23;9.80;;;;;;;;;;5047059;28;20160;-66
2022/01/29 01:59:33;;;;;;;13.00;9.63;;;;;;;;;;5051673;28;20446;-65
2022/01/29 02:01:59;;;;;;;15.45;10.05;;;;;;;;;;5046955;28;20486;-66
2022/01/29 02:04:25;;;;;;;14.73;9.23;;;;;;;;;;5047171;28;20124;-65
2022/01/29 02:06:51;;;;;;;13.60;9.40;;;;;;;;;;5047516;28;20091;-66
2022/01/29 02:09:20;;;;;;;14.10;9.55;;;;;;;;;;5047459;28;20037;-65
2022/01/29 02:11:53;;;;;;;14.52;9.57;;;;;;;;;;5047315;28;20041;-66
2022/01/29 02:14:23;;;;;;;13.13;9.68;;;;;;;;;;5044765;28;20472;-66
2022/01/29 02:16:49;;;;;;;14.35;10.10;;;;;;;;;;5047309;28;20031;-66
2022/01/29 02:19:15;;;;;;;12.60;9.15;;;;;;;;;;5047240;28;20121;-65
2022/01/29 02:21:41;;;;;;;13.45;8.98;;;;;;;;;;5029712;28;20463;-66
2022/01/29 02:24:07;;;;;;;12.60;8.68;;;;;;;;;;5047073;28;20103;-66
2022/01/29 02:26:33;;;;;;;10.95;8.23;;;;;;;;;;5047498;28;20025;-66
2022/01/29 02:29:00;;;;;;;11.98;8.95;;;;;;;;;;5047422;28;20184;-65
2022/01/29 02:31:26;;;;;;;12.20;9.40;;;;;;;;;;5047070;28;20017;-65
2022/01/29 02:33:52;;;;;;;12.18;9.00;;;;;;;;;;5047182;28;20037;-65
2022/01/29 02:36:18;;;;;;;12.57;8.65;;;;;;;;;;5049303;28;20029;-65
2022/01/29 02:38:44;;;;;;;14.45;10.00;;;;;;;;;;5047785;28;20025;-66
2022/01/29 02:41:10;;;;;;;11.35;8.93;;;;;;;;;;5050544;28;20032;-66
2022/01/29 02:43:49;;;;;;;13.93;9.80;;;;;;;;;;5050783;28;20108;-65
2022/01/29 02:48:52;;;;;;;13.30;9.18;;;;;;;;;;5050570;28;20507;-66
2022/01/29 02:51:19;;;;;;;13.88;8.60;;;;;;;;;;5043687;28;20483;-65
2022/01/29 02:53:46;;;;;;;10.57;8.15;;;;;;;;;;5051289;28;20021;-65
2022/01/29 02:56:13;;;;;;;10.98;7.95;;;;;;;;;;5051102;28;20037;-65
2022/01/29 02:58:39;;;;;;;11.27;8.30;;;;;;;;;;5050424;28;20037;-65
2022/01/29 03:01:05;;;;;;;11.23;8.48;;;;;;;;;;5050638;28;20025;-65
2022/01/29 03:03:31;;;;;;;11.98;7.82;;;;;;;;;;5050910;28;20082;-67
2022/01/29 03:05:57;;;;;;;12.32;8.80;;;;;;;;;;5047614;28;20120;-65
2022/01/29 03:08:24;;;;;;;9.40;7.30;;;;;;;;;;5050959;28;20025;-65
2022/01/29 03:10:50;;;;;;;12.48;8.73;;;;;;;;;;5049938;28;20040;-64
2022/01/29 03:13:16;;;;;;;12.27;8.18;;;;;;;;;;5050365;28;20071;-66
2022/01/29 03:15:42;;;;;;;11.45;8.82;;;;;;;;;;5050504;28;20113;-67
2022/01/29 03:18:08;;;;;;;10.75;7.93;;;;;;;;;;5051145;28;20032;-67
2022/01/29 03:20:35;;;;;;;9.93;7.60;;;;;;;;;;5050714;28;20021;-66
2022/01/29 03:23:01;;;;;;;11.07;7.55;;;;;;;;;;5050935;28;20542;-67
2022/01/29 03:25:27;;;;;;;10.68;7.70;;;;;;;;;;5031591;28;20603;-66
2022/01/29 03:27:53;;;;;;;11.25;8.63;;;;;;;;;;5049895;28;20033;-66
2022/01/29 03:30:19;;;;;;;11.18;8.30;;;;;;;;;;5049721;28;20454;-67
2022/01/29 03:32:45;;;;;;;11.35;8.15;;;;;;;;;;5049454;28;20037;-65
2022/01/29 03:35:12;;;;;;;9.93;7.90;;;;;;;;;;5050177;28;20025;-65
2022/01/29 03:37:38;;;;;;;10.85;7.65;;;;;;;;;;5048872;28;20546;-66
2022/01/29 03:40:06;;;;;;;9.48;6.90;;;;;;;;;;5047865;28;20436;-66
2022/01/29 03:42:38;;;;;;;10.07;7.70;;;;;;;;;;5048212;28;20445;-67
2022/01/29 03:45:07;;;;;;;11.13;7.80;;;;;;;;;;5048011;28;20033;-66
2022/01/29 03:47:33;;;;;;;9.45;7.07;;;;;;;;;;5047447;28;20099;-66
2022/01/29 03:49:59;;;;;;;9.38;7.35;;;;;;;;;;5046852;28;20098;-66
2022/01/29 03:52:25;;;;;;;10.82;7.78;;;;;;;;;;5047465;28;20037;-65
2022/01/29 03:54:51;;;;;;;11.10;7.95;;;;;;;;;;5047556;28;20769;-66
2022/01/29 03:57:17;;;;;;;9.45;6.63;;;;;;;;;;5046742;28;20037;-67
2022/01/29 03:59:43;;;;;;;9.38;7.05;;;;;;;;;;5047187;28;20139;-66
2022/01/29 04:02:09;;;;;;;10.15;7.50;;;;;;;;;;5047046;28;20024;-66
2022/01/29 04:04:35;;;;;;;10.05;7.68;;;;;;;;;;5047088;28;20135;-67
2022/01/29 04:07:06;;;;;;;9.82;7.07;;;;;;;;;;5046507;28;20179;-66
2022/01/29 04:09:33;;;;;;;9.32;7.28;;;;;;;;;;5047105;28;20082;-66
2022/01/29 04:11:59;;;;;;;9.25;6.90;;;;;;;;;;5047367;28;20025;-66
2022/01/29 04:14:32;;;;;;;10.63;7.18;;;;;;;;;;5047160;28;20037;-66
2022/01/29 04:16:58;;;;;;;9.88;7.15;;;;;;;;;;5046907;28;20056;-65
2022/01/29 04:19:24;;;;;;;10.45;7.32;;;;;;;;;;5047440;28;20391;-66
2022/01/29 04:21:50;;;;;;;8.20;6.63;;;;;;;;;;5029124;28;20554;-65
2022/01/29 04:24:16;;;;;;;9.25;6.80;;;;;;;;;;5046730;28;20551;-65
2022/01/29 04:26:42;;;;;;;9.30;6.97;;;;;;;;;;5046812;28;20021;-65
2022/01/29 04:29:08;;;;;;;9.38;6.45;;;;;;;;;;5046931;28;20492;-65
2022/01/29 04:31:58;;;;;;;9.68;7.25;;;;;;;;;;5046977;28;20025;-65
2022/01/29 04:34:24;;;;;;;9.20;6.70;;;;;;;;;;5037337;28;20020;-65
2022/01/29 04:36:51;;;;;;;9.13;6.15;;;;;;;;;;5046638;28;20036;-65
2022/01/29 04:39:17;;;;;;;9.90;7.03;;;;;;;;;;5046438;28;20037;-65
2022/01/29 04:41:43;;;;;;;8.82;6.68;;;;;;;;;;5046254;28;20029;-66
2022/01/29 04:44:09;;;;;;;8.25;5.93;;;;;;;;;;5046438;28;20036;-66
2022/01/29 04:46:35;;;;;;;8.32;6.50;;;;;;;;;;5045880;28;20067;-66
2022/01/29 04:49:01;;;;;;;8.45;6.20;;;;;;;;;;5046147;28;20032;-66
2022/01/29 04:51:27;;;;;;;9.27;7.03;;;;;;;;;;5046018;28;20087;-66
2022/01/29 04:53:54;;;;;;;8.80;6.80;;;;;;;;;;5046416;28;20535;-66
2022/01/29 04:56:20;;;;;;;7.75;5.90;;;;;;;;;;5026431;28;20536;-66
2022/01/29 04:58:46;;;;;;;9.15;6.25;;;;;;;;;;5040338;28;20435;-65
2022/01/29 05:01:12;;;;;;;8.45;6.03;;;;;;;;;;5044190;28;20074;-65
2022/01/29 05:03:38;;;;;;;8.30;6.03;;;;;;;;;;5045089;28;20041;-66
2022/01/29 05:06:09;;;;;;;8.23;6.03;;;;;;;;;;5046427;28;20501;-66
2022/01/29 05:08:36;;;;;;;8.75;6.70;;;;;;;;;;5042426;28;20033;-65
2022/01/29 05:11:02;;;;;;;8.23;6.20;;;;;;;;;;5041960;28;20032;-67
2022/01/29 05:13:30;;;;;;;8.80;6.78;;;;;;;;;;5041954;28;20029;-65
2022/01/29 05:29:19;;;;;;;8.95;6.80;;;;;;;;;;5045074;28;20024;-65
2022/01/29 05:31:45;;;;;;;8.98;6.03;;;;;;;;;;5045449;28;20036;-65
2022/01/29 05:34:11;;;;;;;8.10;5.78;;;;;;;;;;5045492;28;20021;-66
2022/01/29 05:36:37;;;;;;;7.80;5.95;;;;;;;;;;5034005;28;20072;-66
2022/01/29 05:39:04;;;;;;;8.30;5.97;;;;;;;;;;5030444;28;20049;-66
2022/01/29 05:41:32;;;;;;;8.07;6.82;;;;;;;;;;5027931;28;20032;-66
2022/01/29 05:43:58;;;;;;;8.43;6.28;;;;;;;;;;5045193;28;20112;-65
2022/01/29 05:46:24;;;;;;;9.15;6.03;;;;;;;;;;5045185;28;20048;-65
2022/01/29 05:48:50;;;;;;;9.35;6.38;;;;;;;;;;5045309;28;20029;-65
2022/01/29 05:51:16;;;;;;;8.75;6.28;;;;;;;;;;5044780;28;20032;-65
2022/01/29 05:53:42;;;;;;;9.43;6.47;;;;;;;;;;5045818;28;20032;-66
2022/01/29 05:56:11;;;;;;;8.57;5.80;;;;;;;;;;5045285;28;20029;-66
2022/01/29 05:58:37;;;;;;;9.05;6.55;;;;;;;;;;5045238;28;20483;-65
2022/01/29 06:01:03;;;;;;;8.68;5.63;;;;;;;;;;5045310;28;20490;-66
2022/01/29 06:03:29;;;;;;;7.90;5.78;;;;;;;;;;5045323;28;20095;-65
2022/01/29 06:05:55;;;;;;;8.25;6.00;;;;;;;;;;5044918;28;20119;-66
2022/01/29 06:08:22;;;;;;;7.80;5.53;;;;;;;;;;5045068;28;20750;-66
2022/01/29 06:10:48;;;;;;;7.03;5.25;;;;;;;;;;5045469;28;20041;-66
2022/01/29 06:13:15;;;;;;;8.60;6.00;;;;;;;;;;5045834;28;20119;-65
2022/01/29 06:16:00;;;;;;;;;;;;;;;;;;;;;
2022/01/29 06:18:28;;;;;;;8.02;5.78;;;;;;;;;;5050934;28;20031;-65
2022/01/29 06:20:56;;;;;;;8.43;6.22;;;;;;;;;;5045273;28;20021;-65
2022/01/29 06:23:29;;;;;;;8.82;6.53;;;;;;;;;;5045179;28;20498;-65
2022/01/29 06:25:57;;;;;;;7.22;5.30;;;;;;;;;;5043851;28;20025;-65
2022/01/29 06:28:23;;;;;;;8.30;6.18;;;;;;;;;;5044646;28;20100;-65
2022/01/29 06:30:49;;;;;;;7.88;5.47;;;;;;;;;;5042102;28;20021;-65
2022/01/29 06:33:15;;;;;;;8.07;5.80;;;;;;;;;;5047216;28;20132;-65
2022/01/29 06:35:44;;;;;;;9.52;5.90;;;;;;;;;;5046088;28;20029;-65
2022/01/29 06:38:13;;;;;;;8.70;5.30;;;;;;;;;;5050762;28;20367;-65
2022/01/29 06:40:39;;;;;;;8.30;6.07;;;;;;;;;;5040715;28;20380;-65
2022/01/29 06:43:06;;;;;;;7.50;5.40;;;;;;;;;;5045202;28;20017;-65
2022/01/29 06:45:33;;;;;;;9.65;5.60;;;;;;;;;;5042848;28;20033;-65
2022/01/29 06:47:59;;;;;;;6.80;4.75;;;;;;;;;;5046618;28;20088;-66
2022/01/29 06:50:25;;;;;;;8.73;5.93;;;;;;;;;;5049415;28;20056;-65
2022/01/29 06:52:51;;;;;;;7.45;5.43;;;;;;;;;;5045866;28;20462;-65
2022/01/29 06:55:18;;;;;;;8.00;5.53;;;;;;;;;;5042988;28;20035;-65
2022/01/29 06:57:44;;;;;;;7.57;5.47;;;;;;;;;;5043668;28;20079;-66
2022/01/29 07:00:10;;;;;;;6.75;5.10;;;;;;;;;;5044473;28;20108;-66
2022/01/29 07:02:37;;;;;;;6.75;5.10;;;;;;;;;;5043169;28;20108;-66
2022/01/29 07:05:09;;;;;;;7.43;5.50;;;;;;;;;;5041627;28;20021;-66
2022/01/29 07:07:36;;;;;;;8.02;5.43;;;;;;;;;;5045585;28;20131;-66
2022/01/29 07:10:02;;;;;;;8.07;5.63;;;;;;;;;;5045900;28;20068;-66
2022/01/29 07:12:28;;;;;;;7.72;5.38;;;;;;;;;;5045680;28;20025;-65
2022/01/29 07:14:56;;;;;;;8.23;5.70;;;;;;;;;;5042603;28;20025;-65
2022/01/29 07:17:24;;;;;;;6.72;4.72;;;;;;;;;;5044155;28;20067;-65
2022/01/29 07:19:51;;;;;;;8.88;5.68;;;;;;;;;;5043383;28;20030;-65
2022/01/29 07:22:17;;;;;;;7.18;5.20;;;;;;;;;;5041177;28;20527;-65
2022/01/29 07:24:43;;;;;;;7.20;5.30;;;;;;;;;;5050576;28;20043;-65
2022/01/29 07:27:09;;;;;;;8.52;5.50;;;;;;;;;;5049983;28;20606;-66
2022/01/29 07:29:35;;;;;;;6.88;5.07;;;;;;;;;;5049618;28;20367;-66
2022/01/29 07:32:02;;;;;;;7.25;5.43;;;;;;;;;;5050494;28;20029;-66
2022/01/29 07:34:28;;;;;;;7.20;5.40;;;;;;;;;;5049942;28;20029;-66
2022/01/29 07:36:55;;;;;;;7.95;5.32;;;;;;;;;;5051483;28;20025;-66
2022/01/29 07:39:22;;;;;;;7.20;5.18;;;;;;;;;;5044931;28;20096;-65
2022/01/29 07:41:48;;;;;;;6.80;5.10;;;;;;;;;;5036899;28;20036;-65
2022/01/29 07:44:15;;;;;;;6.85;5.03;;;;;;;;;;5042180;28;20128;-65
2022/01/29 07:46:41;;;;;;;7.72;5.07;;;;;;;;;;5033849;28;20121;-66
2022/01/29 07:49:08;;;;;;;6.32;4.53;;;;;;;;;;5041061;28;20098;-65
2022/01/29 07:51:35;;;;;;;6.68;4.82;;;;;;;;;;5041275;28;20044;-66
2022/01/29 07:54:01;;;;;;;6.93;4.78;;;;;;;;;;5037390;28;20033;-65
2022/01/29 07:56:27;;;;;;;6.78;4.93;;;;;;;;;;5039903;28;20529;-65
2022/01/29 07:58:53;;;;;;;9.18;5.15;;;;;;;;;;5044910;28;20188;-66
2022/01/29 08:01:19;;;;;;;6.35;4.53;;;;;;;;;;5041889;28;20475;-65
2022/01/29 08:03:50;;;;;;;7.85;4.85;;;;;;;;;;5042646;28;20087;-66
2022/01/29 08:06:18;;;;;;;6.70;4.80;;;;;;;;;;5040396;28;20479;-65
2022/01/29 08:08:44;;;;;;;6.97;4.65;;;;;;;;;;5038066;28;20017;-66
2022/01/29 08:11:38;;;;;;;7.85;4.80;;;;;;;;;;5042772;28;20120;-69
2022/01/29 08:17:27;;;;;;;5.85;4.03;;;;;;;;;;4916188;28;20031;-67
2022/01/29 08:20:07;;;;;;;7.28;4.82;;;;;;;;;;5025547;28;20036;-68
2022/01/29 08:26:31;;;;;;;;;;;;;;;;;;;;;
2022/01/29 08:29:23;;;;;;;5.80;3.83;;;;;;;;;;5043009;28;20028;-67
2022/01/29 08:44:41;;;;;;;7.40;4.45;;;;;;;;;;4942376;28;20046;-66
2022/01/29 08:47:22;;;;;;;;;;;;;;;;;;;;;
2022/01/29 08:49:52;;;;;;;6.75;4.60;;;;;;;;;;5032438;28;20033;-67
2022/01/29 08:52:39;;;;;;;9.02;4.38;;;;;;;;;;5043470;28;20036;-67
2022/01/29 08:56:07;;;;;;;6.00;4.15;;;;;;;;;;5040736;28;20100;-67
2022/01/29 08:58:32;;;;;;;7.78;4.65;;;;;;;;;;4968546;28;20025;-67
2022/01/29 09:01:03;;;;;;;6.75;3.97;;;;;;;;;;5048976;28;20181;-68
2022/01/29 09:03:32;;;;;;;9.68;4.85;;;;;;;;;;5048992;28;20031;-67
2022/01/29 09:06:07;;;;;;;10.45;5.15;;;;;;;;;;5049089;28;20029;-68
2022/01/29 09:08:45;;;;;;;8.23;4.20;;;;;;;;;;5030399;28;20033;-66
2022/01/29 09:11:14;;;;;;;9.40;4.63;;;;;;;;;;5038559;28;20017;-68
2022/01/29 09:13:44;;;;;;;7.80;4.07;;;;;;;;;;5037000;28;20115;-67
2022/01/29 09:16:16;;;;;;;9.30;4.10;;;;;;;;;;5037094;28;20108;-66
2022/01/29 09:18:51;;;;;;;7.75;3.88;;;;;;;;;;5048428;28;20025;-68
2022/01/29 09:21:53;;;;;;;8.93;3.70;;;;;;;;;;5048647;28;20154;-66
2022/01/29 09:24:22;;;;;;;6.03;3.72;;;;;;;;;;5043375;28;20037;-66
2022/01/29 09:26:48;;;;;;;9.85;4.47;;;;;;;;;;5048504;28;20449;-66
2022/01/29 09:29:14;;;;;;;8.45;4.00;;;;;;;;;;5038012;28;20028;-66
2022/01/29 09:31:40;;;;;;;7.22;3.85;;;;;;;;;;5032172;28;20449;-66
2022/01/29 09:34:06;;;;;;;8.23;3.97;;;;;;;;;;5039635;28;20044;-65
2022/01/29 09:36:32;;;;;;;6.65;3.75;;;;;;;;;;5038864;28;20029;-66
2022/01/29 09:38:58;;;;;;;7.78;4.13;;;;;;;;;;5045018;28;20033;-66
2022/01/29 09:41:27;;;;;;;7.28;3.40;;;;;;;;;;5044388;28;20564;-66
2022/01/29 09:43:54;;;;;;;9.77;3.75;;;;;;;;;;5042685;28;20079;-65
2022/01/29 09:46:20;;;;;;;7.47;3.78;;;;;;;;;;5030336;28;20029;-66
2022/01/29 09:48:46;;;;;;;7.03;3.78;;;;;;;;;;5020760;28;20116;-66
2022/01/29 09:51:13;;;;;;;7.47;3.70;;;;;;;;;;5047945;28;20036;-66
2022/01/29 09:53:45;;;;;;;7.97;3.80;;;;;;;;;;5047150;28;20044;-66
2022/01/29 09:56:11;;;;;;;12.40;4.05;;;;;;;;;;5048171;28;20052;-67
2022/01/29 09:58:38;;;;;;;7.15;3.13;;;;;;;;;;5028739;28;20566;-66
2022/01/29 10:01:04;;;;;;;5.78;2.97;;;;;;;;;;5048424;28;20021;-66
2022/01/29 10:03:30;;;;;;;8.63;3.58;;;;;;;;;;5047081;28;20033;-66
2022/01/29 10:05:57;;;;;;;10.85;2.72;;;;;;;;;;5046837;28;20032;-67
2022/01/29 10:08:24;;;;;;;7.57;3.13;;;;;;;;;;5046798;28;20403;-66
2022/01/29 10:10:50;;;;;;;5.95;3.05;;;;;;;;;;5047802;28;20045;-66
2022/01/29 10:13:22;;;;;;;7.18;2.45;;;;;;;;;;5047490;28;20048;-65
2022/01/29 10:15:48;;;;;;;6.00;2.60;;;;;;;;;;5047762;28;20032;-66
2022/01/29 10:18:24;;;;;;;5.45;2.90;;;;;;;;;;5047595;28;20118;-66
2022/01/29 10:20:51;;;;;;;6.75;3.05;;;;;;;;;;5036596;28;20055;-66
2022/01/29 10:23:17;;;;;;;7.95;2.78;;;;;;;;;;5047440;28;20065;-67
2022/01/29 10:25:44;;;;;;;6.25;2.75;;;;;;;;;;5038289;28;20064;-67
2022/01/29 10:28:12;;;;;;;5.10;2.50;;;;;;;;;;5028151;28;20057;-67
2022/01/29 10:30:50;;;;;;;5.22;2.20;;;;;;;;;;5047306;28;20036;-67
2022/01/29 10:33:24;;;;;;;6.97;2.33;;;;;;;;;;5044472;28;20047;-65
2022/01/29 10:35:51;;;;;;;4.82;2.25;;;;;;;;;;5044555;28;20025;-66
2022/01/29 10:38:19;;;;;;;4.28;2.00;;;;;;;;;;5047090;28;20036;-66
2022/01/29 10:40:45;;;;;;;4.68;2.10;;;;;;;;;;5046582;28;20037;-66
2022/01/29 10:43:11;;;;;;;5.03;2.20;;;;;;;;;;5046955;28;20029;-66
2022/01/29 10:45:37;;;;;;;6.35;2.25;;;;;;;;;;5038679;28;20479;-66
2022/01/29 10:48:06;;;;;;;5.93;2.10;;;;;;;;;;5037136;28;20045;-67
2022/01/29 10:50:32;;;;;;;5.50;2.30;;;;;;;;;;5038529;28;20025;-66
2022/01/29 10:53:01;;;;;;;5.72;2.65;;;;;;;;;;5037904;28;20970;-66
2022/01/29 10:55:27;;;;;;;4.35;1.73;;;;;;;;;;5044383;28;20037;-67
2022/01/29 10:57:53;;;;;;;6.05;2.35;;;;;;;;;;5047306;28;20048;-66
2022/01/29 11:00:26;;;;;;;3.03;1.40;;;;;;;;;;5046477;28;20025;-66
2022/01/29 11:02:53;;;;;;;8.05;2.42;;;;;;;;;;5050920;28;20037;-66
2022/01/29 11:05:22;;;;;;;4.40;2.22;;;;;;;;;;5049824;28;20100;-65
2022/01/29 11:07:51;;;;;;;5.10;1.80;;;;;;;;;;5050062;28;20036;-66
2022/01/29 11:10:19;;;;;;;5.70;2.10;;;;;;;;;;5049670;28;20029;-66
2022/01/29 11:12:48;;;;;;;5.45;1.90;;;;;;;;;;5049824;28;20087;-66
2022/01/29 11:15:15;;;;;;;5.60;1.60;;;;;;;;;;5050423;28;20157;-67
2022/01/29 11:17:43;;;;;;;6.10;1.77;;;;;;;;;;5049544;28;20833;-67
2022/01/29 11:20:10;;;;;;;7.07;1.83;;;;;;;;;;5048162;28;20040;-67
2022/01/29 11:22:38;;;;;;;5.85;1.83;;;;;;;;;;5049279;28;20465;-67
2022/01/29 11:25:09;;;;;;;4.65;1.58;;;;;;;;;;5049687;28;20514;-67
2022/01/29 11:27:41;;;;;;;5.25;1.52;;;;;;;;;;5038166;28;20029;-66
2022/01/29 11:30:10;;;;;;;3.10;1.33;;;;;;;;;;5050596;28;20124;-66
2022/01/29 11:32:38;;;;;;;5.78;1.50;;;;;;;;;;5049661;28;20047;-66
2022/01/29 11:35:21;;;;;;;5.70;1.52;;;;;;;;;;5050845;28;20029;-66
2022/01/29 11:37:53;;;;;;;7.32;1.77;;;;;;;;;;5048812;28;20021;-66
2022/01/29 11:40:23;;;;;;;7.30;2.00;;;;;;;;;;5041235;28;20033;-65
2022/01/29 11:43:07;;;;;;;4.33;1.60;;;;;;;;;;5044042;28;20476;-67
2022/01/29 11:45:40;;;;;;;3.70;1.52;;;;;;;;;;5049030;28;20646;-68
2022/01/29 11:48:06;;;;;;;7.30;2.00;;;;;;;;;;5049344;28;20561;-67
2022/01/29 11:50:32;;;;;;;6.90;1.88;;;;;;;;;;5049702;28;20052;-66
2022/01/29 11:53:03;;;;;;;6.80;1.60;;;;;;;;;;5039629;28;20128;-69
2022/01/29 11:55:33;;;;;;;11.30;2.30;;;;;;;;;;5049658;28;20147;-67
2022/01/29 11:58:17;;;;;;;3.83;1.15;;;;;;;;;;5053354;28;20105;-67
2022/01/29 12:00:52;;;;;;;6.53;1.65;;;;;;;;;;5028557;28;20022;-66
2022/01/29 12:03:43;;;;;;;5.65;1.63;;;;;;;;;;5047450;28;20036;-66
2022/01/29 12:06:15;;;;;;;;;;;;;;;;;;5048392;28;20025;-66
2022/01/29 12:09:07;;;;;;;8.85;1.60;;;;;;;;;;5048292;28;19931;-67
2022/01/29 12:11:37;;;;;;;6.05;1.88;;;;;;;;;;5030973;28;20036;-66
2022/01/29 12:14:13;;;;;;;8.43;1.92;;;;;;;;;;5039540;28;20043;-66
2022/01/29 12:16:54;;;;;;;9.48;1.58;;;;;;;;;;5048902;28;20087;-66
2022/01/29 12:19:43;;;;;;;6.22;1.50;;;;;;;;;;5046072;28;20082;-66
2022/01/29 12:22:26;;;;;;;11.45;1.90;;;;;;;;;;5037859;28;20033;-66
2022/01/29 12:24:53;;;;;;;8.63;1.92;;;;;;;;;;5048751;28;20043;-67
2022/01/29 12:27:20;;;;;;;3.45;1.30;;;;;;;;;;5049174;28;20108;-67
2022/01/29 12:29:46;;;;;;;7.65;1.80;;;;;;;;;;5044421;28;20109;-67
2022/01/29 12:32:12;;;;;;;5.82;1.60;;;;;;;;;;5042686;28;20774;-67
2022/01/29 12:34:38;;;;;;;7.07;1.70;;;;;;;;;;5048345;28;20102;-66
2022/01/29 12:37:08;;;;;;;6.30;1.70;;;;;;;;;;5047336;28;20104;-67
2022/01/29 12:39:34;;;;;;;8.05;1.40;;;;;;;;;;5047616;28;20147;-67
2022/01/29 12:42:07;;;;;;;3.63;1.40;;;;;;;;;;5049420;28;20063;-67
2022/01/29 12:44:33;;;;;;;7.75;1.30;;;;;;;;;;5048565;28;20039;-68
2022/01/29 12:46:59;;;;;;;8.18;1.77;;;;;;;;;;5030817;28;20563;-68
2022/01/29 12:49:25;;;;;;;9.75;1.55;;;;;;;;;;5048622;28;20124;-68
2022/01/29 12:51:51;;;;;;;12.05;1.63;;;;;;;;;;5049054;28;20621;-68
2022/01/29 12:54:17;;;;;;;4.15;1.73;;;;;;;;;;5030783;28;20554;-67
2022/01/29 12:56:43;;;;;;;8.45;2.45;;;;;;;;;;5040144;28;20075;-68
2022/01/29 12:59:10;;;;;;;5.78;2.03;;;;;;;;;;5037684;28;20025;-67
2022/01/29 13:01:37;;;;;;;6.22;1.50;;;;;;;;;;5048843;28;20036;-66
2022/01/29 13:04:04;;;;;;;5.05;1.50;;;;;;;;;;5049290;28;20025;-66
2022/01/29 13:06:30;;;;;;;4.55;1.58;;;;;;;;;;5048626;28;20056;-66
2022/01/29 13:09:12;;;;;;;4.22;1.50;;;;;;;;;;5049020;28;20665;-66
2022/01/29 13:11:38;;;;;;;6.90;1.60;;;;;;;;;;5038021;28;20463;-66
2022/01/29 13:14:18;;;;;;;5.75;1.50;;;;;;;;;;5048159;28;20483;-66
2022/01/29 13:16:44;;;;;;;5.03;1.27;;;;;;;;;;5037719;28;20024;-67
2022/01/29 13:19:11;;;;;;;4.90;1.50;;;;;;;;;;5047793;28;20017;-67
2022/01/29 13:21:37;;;;;;;7.97;1.50;;;;;;;;;;5048180;28;20980;-67
2022/01/29 13:24:23;;;;;;;5.03;1.75;;;;;;;;;;5046653;28;20100;-67
2022/01/29 13:27:02;;;;;;;5.95;1.92;;;;;;;;;;5038767;28;20021;-67
2022/01/29 13:29:32;;;;;;;5.47;1.95;;;;;;;;;;5042734;28;20114;-67
2022/01/29 13:31:58;;;;;;;5.40;1.63;;;;;;;;;;5029043;28;20120;-66
2022/01/29 13:34:28;;;;;;;5.55;1.67;;;;;;;;;;5046289;28;20121;-67
2022/01/29 13:36:55;;;;;;;8.60;1.63;;;;;;;;;;5046745;28;20016;-66
2022/01/29 13:39:21;;;;;;;5.95;1.83;;;;;;;;;;5045061;28;20043;-67
2022/01/29 13:41:47;;;;;;;7.82;1.90;;;;;;;;;;5042564;28;20033;-66
2022/01/29 13:44:13;;;;;;;7.97;2.25;;;;;;;;;;5047013;28;20041;-66
2022/01/29 13:46:39;;;;;;;5.00;1.83;;;;;;;;;;5046793;28;20041;-66
2022/01/29 13:49:07;;;;;;;6.70;2.22;;;;;;;;;;5046207;28;20025;-67
2022/01/29 13:51:33;;;;;;;6.35;1.63;;;;;;;;;;5045968;28;20040;-67
2022/01/29 13:54:02;;;;;;;4.82;1.73;;;;;;;;;;5046707;28;20757;-66
2022/01/29 13:56:28;;;;;;;5.57;1.88;;;;;;;;;;5046394;28;20443;-67
2022/01/29 13:58:59;;;;;;;9.98;2.40;;;;;;;;;;5047615;28;20033;-67
2022/01/29 14:01:36;;;;;;;8.43;1.90;;;;;;;;;;5046791;28;20037;-66
2022/01/29 14:04:03;;;;;;;6.22;1.83;;;;;;;;;;5045939;28;20036;-65
2022/01/29 14:06:38;;;;;;;6.53;1.85;;;;;;;;;;5046128;28;20116;-66
2022/01/29 14:09:07;;;;;;;7.30;2.47;;;;;;;;;;5046977;28;20073;-66
2022/01/29 14:11:52;;;;;;;5.97;1.60;;;;;;;;;;5045214;28;20025;-65
2022/01/29 14:14:18;;;;;;;7.18;1.77;;;;;;;;;;5046631;28;20047;-66
2022/01/29 14:16:44;;;;;;;7.45;2.40;;;;;;;;;;5027670;28;20391;-66
2022/01/29 14:19:17;;;;;;;6.60;2.08;;;;;;;;;;5044747;28;20509;-66
2022/01/29 14:21:44;;;;;;;7.85;2.30;;;;;;;;;;5045305;28;20033;-66
2022/01/29 14:24:10;;;;;;;8.55;2.17;;;;;;;;;;5043139;28;20025;-65
2022/01/29 14:26:37;;;;;;;5.00;1.88;;;;;;;;;;5044743;28;20017;-66
2022/01/29 14:29:03;;;;;;;7.95;2.05;;;;;;;;;;5045691;28;20065;-66
2022/01/29 14:31:29;;;;;;;5.75;2.40;;;;;;;;;;5046770;28;20112;-66
2022/01/29 14:33:55;;;;;;;4.93;1.63;;;;;;;;;;5040716;28;20056;-66
2022/01/29 14:36:21;;;;;;;8.18;2.28;;;;;;;;;;5028336;28;20028;-65
2022/01/29 14:38:47;;;;;;;6.18;1.92;;;;;;;;;;5045626;28;20087;-66
2022/01/29 14:41:14;;;;;;;6.25;2.00;;;;;;;;;;5028759;28;20849;-66
2022/01/29 14:43:40;;;;;;;7.28;2.42;;;;;;;;;;5046230;28;20028;-66
2022/01/29 14:46:06;;;;;;;5.13;2.17;;;;;;;;;;5048927;28;20025;-66
2022/01/29 14:48:33;;;;;;;7.30;2.15;;;;;;;;;;5048557;28;20509;-65
2022/01/29 14:50:59;;;;;;;7.00;1.90;;;;;;;;;;5048517;28;20607;-66
2022/01/29 14:53:25;;;;;;;7.28;2.30;;;;;;;;;;5048723;28;20051;-66
2022/01/29 14:55:51;;;;;;;6.43;2.17;;;;;;;;;;5030870;28;20095;-66
2022/01/29 14:58:17;;;;;;;7.72;1.90;;;;;;;;;;5048763;28;20068;-66
2022/01/29 15:00:45;;;;;;;6.10;1.95;;;;;;;;;;5049179;28;20139;-66
2022/01/29 15:03:12;;;;;;;6.63;1.50;;;;;;;;;;5046779;28;20706;-66
2022/01/29 15:05:38;;;;;;;8.35;2.00;;;;;;;;;;5043988;28;20824;-66
2022/01/29 15:08:05;;;;;;;5.60;1.40;;;;;;;;;;5039058;28;20551;-65
2022/01/29 15:10:35;;;;;;;8.77;1.80;;;;;;;;;;5049341;28;20602;-66
2022/01/29 15:13:01;;;;;;;6.65;1.73;;;;;;;;;;5045211;28;20476;-65
2022/01/29 15:15:27;;;;;;;5.03;1.83;;;;;;;;;;5049886;28;20108;-66
2022/01/29 15:17:54;;;;;;;4.90;1.60;;;;;;;;;;5046977;28;20112;-66
2022/01/29 15:20:20;;;;;;;5.45;1.85;;;;;;;;;;5031715;28;20144;-65
2022/01/29 15:22:46;;;;;;;7.35;1.73;;;;;;;;;;5032008;28;20382;-65
2022/01/29 15:25:12;;;;;;;7.38;1.88;;;;;;;;;;5049653;28;20506;-66